sensor_id;sensor_type;location;lat;lon;timestamp;P1;durP1;ratioP1;P2;durP2;ratioP2
8225;SDS011;4154;48.810;9.012;2024-03-08T00:00:50;17.27;;;13.83;;
8225;SDS011;4154;48.810;9.012;2024-03-08T00:03:16;17.37;;;13.77;;
8225;SDS011;4154;48.810;9.012;2024-03-08T00:05:42;15.93;;;13.50;;
8225;SDS011;4154;48.810;9.012;2024-03-08T00:08:07;16.43;;;13.57;;
8225;SDS011;4154;48.810;9.012;2024-03-08T00:10:34;18.93;;;14.37;;
8225;SDS011;4154;48.810;9.012;2024-03-08T00:13:00;15.90;;;13.07;;
8225;SDS011;4154;48.810;9.012;2024-03-08T00:15:29;17.40;;;13.77;;
8225;SDS011;4154;48.810;9.012;2024-03-08T00:17:57;16.17;;;13.57;;
8225;SDS011;4154;48.810;9.012;2024-03-08T00:20:22;16.77;;;13.33;;
8225;SDS011;4154;48.810;9.012;2024-03-08T00:22:48;16.30;;;13.10;;
8225;SDS011;4154;48.810;9.012;2024-03-08T00:25:14;18.27;;;13.77;;
8225;SDS011;4154;48.810;9.012;2024-03-08T00:27:41;15.73;;;12.93;;
8225;SDS011;4154;48.810;9.012;2024-03-08T00:30:06;15.63;;;12.87;;
8225;SDS011;4154;48.810;9.012;2024-03-08T00:32:33;16.20;;;13.57;;
8225;SDS011;4154;48.810;9.012;2024-03-08T00:34:59;17.27;;;13.40;;
8225;SDS011;4154;48.810;9.012;2024-03-08T00:37:24;15.50;;;12.80;;
8225;SDS011;4154;48.810;9.012;2024-03-08T00:39:51;16.33;;;13.17;;
8225;SDS011;4154;48.810;9.012;2024-03-08T00:42:17;17.40;;;13.67;;
8225;SDS011;4154;48.810;9.012;2024-03-08T00:44:44;16.47;;;13.80;;
8225;SDS011;4154;48.810;9.012;2024-03-08T00:47:10;17.43;;;13.73;;
8225;SDS011;4154;48.810;9.012;2024-03-08T00:49:36;17.77;;;14.20;;
8225;SDS011;4154;48.810;9.012;2024-03-08T00:52:03;16.20;;;13.33;;
8225;SDS011;4154;48.810;9.012;2024-03-08T00:54:33;16.30;;;13.23;;
8225;SDS011;4154;48.810;9.012;2024-03-08T00:57:02;16.77;;;13.40;;
8225;SDS011;4154;48.810;9.012;2024-03-08T00:59:29;18.57;;;13.73;;
8225;SDS011;4154;48.810;9.012;2024-03-08T01:01:57;17.70;;;14.50;;
8225;SDS011;4154;48.810;9.012;2024-03-08T01:04:25;17.23;;;13.27;;
8225;SDS011;4154;48.810;9.012;2024-03-08T01:06:53;16.53;;;13.63;;
8225;SDS011;4154;48.810;9.012;2024-03-08T01:09:21;17.30;;;13.97;;
8225;SDS011;4154;48.810;9.012;2024-03-08T01:11:51;17.17;;;13.37;;
8225;SDS011;4154;48.810;9.012;2024-03-08T01:14:19;16.23;;;13.03;;
8225;SDS011;4154;48.810;9.012;2024-03-08T01:16:47;16.83;;;13.60;;
8225;SDS011;4154;48.810;9.012;2024-03-08T01:19:14;15.13;;;12.73;;
8225;SDS011;4154;48.810;9.012;2024-03-08T01:21:40;16.93;;;13.33;;
8225;SDS011;4154;48.810;9.012;2024-03-08T01:24:06;16.37;;;13.50;;
8225;SDS011;4154;48.810;9.012;2024-03-08T01:26:32;16.67;;;14.13;;
8225;SDS011;4154;48.810;9.012;2024-03-08T01:29:01;17.63;;;13.40;;
8225;SDS011;4154;48.810;9.012;2024-03-08T01:31:31;17.87;;;13.80;;
8225;SDS011;4154;48.810;9.012;2024-03-08T01:33:58;16.00;;;12.83;;
8225;SDS011;4154;48.810;9.012;2024-03-08T01:36:23;15.20;;;12.83;;
8225;SDS011;4154;48.810;9.012;2024-03-08T01:38:50;18.53;;;14.03;;
8225;SDS011;4154;48.810;9.012;2024-03-08T01:41:16;16.33;;;12.97;;
8225;SDS011;4154;48.810;9.012;2024-03-08T01:43:43;15.60;;;12.70;;
8225;SDS011;4154;48.810;9.012;2024-03-08T01:46:10;16.47;;;13.30;;
8225;SDS011;4154;48.810;9.012;2024-03-08T01:48:40;15.93;;;13.10;;
8225;SDS011;4154;48.810;9.012;2024-03-08T01:51:06;17.10;;;13.67;;
8225;SDS011;4154;48.810;9.012;2024-03-08T01:53:33;16.83;;;14.07;;
8225;SDS011;4154;48.810;9.012;2024-03-08T01:56:00;16.77;;;13.63;;
8225;SDS011;4154;48.810;9.012;2024-03-08T01:58:27;17.43;;;13.37;;
8225;SDS011;4154;48.810;9.012;2024-03-08T02:00:54;15.57;;;13.03;;
8225;SDS011;4154;48.810;9.012;2024-03-08T02:03:23;17.13;;;13.53;;
8225;SDS011;4154;48.810;9.012;2024-03-08T02:05:49;15.57;;;13.20;;
8225;SDS011;4154;48.810;9.012;2024-03-08T02:08:16;16.30;;;13.43;;
8225;SDS011;4154;48.810;9.012;2024-03-08T02:10:45;16.53;;;13.53;;
8225;SDS011;4154;48.810;9.012;2024-03-08T02:13:11;15.83;;;13.00;;
8225;SDS011;4154;48.810;9.012;2024-03-08T02:15:53;15.93;;;12.37;;
8225;SDS011;4154;48.810;9.012;2024-03-08T02:18:25;15.07;;;12.70;;
8225;SDS011;4154;48.810;9.012;2024-03-08T02:20:53;16.27;;;13.30;;
8225;SDS011;4154;48.810;9.012;2024-03-08T02:23:24;16.47;;;13.40;;
8225;SDS011;4154;48.810;9.012;2024-03-08T02:25:51;16.07;;;12.83;;
8225;SDS011;4154;48.810;9.012;2024-03-08T02:28:19;18.07;;;13.23;;
8225;SDS011;4154;48.810;9.012;2024-03-08T02:30:45;15.77;;;13.23;;
8225;SDS011;4154;48.810;9.012;2024-03-08T02:33:13;15.63;;;12.90;;
8225;SDS011;4154;48.810;9.012;2024-03-08T02:35:46;15.43;;;13.20;;
8225;SDS011;4154;48.810;9.012;2024-03-08T02:38:13;17.57;;;13.07;;
8225;SDS011;4154;48.810;9.012;2024-03-08T02:40:45;16.67;;;13.03;;
8225;SDS011;4154;48.810;9.012;2024-03-08T02:43:12;16.43;;;12.87;;
8225;SDS011;4154;48.810;9.012;2024-03-08T02:45:42;17.20;;;13.30;;
8225;SDS011;4154;48.810;9.012;2024-03-08T02:48:09;15.23;;;12.60;;
8225;SDS011;4154;48.810;9.012;2024-03-08T02:50:36;16.03;;;13.00;;
8225;SDS011;4154;48.810;9.012;2024-03-08T02:53:02;14.93;;;12.57;;
8225;SDS011;4154;48.810;9.012;2024-03-08T02:55:29;17.67;;;13.93;;
8225;SDS011;4154;48.810;9.012;2024-03-08T02:57:55;17.17;;;12.80;;
8225;SDS011;4154;48.810;9.012;2024-03-08T03:00:22;15.07;;;12.63;;
8225;SDS011;4154;48.810;9.012;2024-03-08T03:02:49;17.30;;;13.00;;
8225;SDS011;4154;48.810;9.012;2024-03-08T03:05:22;16.07;;;12.87;;
8225;SDS011;4154;48.810;9.012;2024-03-08T03:07:48;16.30;;;13.17;;
8225;SDS011;4154;48.810;9.012;2024-03-08T03:10:18;17.77;;;12.87;;
8225;SDS011;4154;48.810;9.012;2024-03-08T03:12:44;16.63;;;12.50;;
8225;SDS011;4154;48.810;9.012;2024-03-08T03:15:11;24.80;;;13.80;;
8225;SDS011;4154;48.810;9.012;2024-03-08T03:17:38;15.00;;;12.00;;
8225;SDS011;4154;48.810;9.012;2024-03-08T03:20:08;16.07;;;13.03;;
8225;SDS011;4154;48.810;9.012;2024-03-08T03:22:38;16.00;;;12.57;;
8225;SDS011;4154;48.810;9.012;2024-03-08T03:25:12;15.83;;;12.63;;
8225;SDS011;4154;48.810;9.012;2024-03-08T03:27:38;16.23;;;12.33;;
8225;SDS011;4154;48.810;9.012;2024-03-08T03:30:05;16.90;;;12.90;;
8225;SDS011;4154;48.810;9.012;2024-03-08T03:32:47;15.53;;;12.63;;
8225;SDS011;4154;48.810;9.012;2024-03-08T03:35:16;14.17;;;12.07;;
8225;SDS011;4154;48.810;9.012;2024-03-08T03:37:43;16.47;;;12.97;;
8225;SDS011;4154;48.810;9.012;2024-03-08T03:40:16;14.53;;;11.87;;
8225;SDS011;4154;48.810;9.012;2024-03-08T03:42:44;15.83;;;12.20;;
8225;SDS011;4154;48.810;9.012;2024-03-08T03:45:10;15.10;;;11.90;;
8225;SDS011;4154;48.810;9.012;2024-03-08T03:47:36;15.10;;;12.43;;
8225;SDS011;4154;48.810;9.012;2024-03-08T03:50:03;14.97;;;11.80;;
8225;SDS011;4154;48.810;9.012;2024-03-08T03:52:30;14.37;;;12.27;;
8225;SDS011;4154;48.810;9.012;2024-03-08T03:54:56;14.17;;;11.23;;
8225;SDS011;4154;48.810;9.012;2024-03-08T03:57:22;16.30;;;12.17;;
8225;SDS011;4154;48.810;9.012;2024-03-08T03:59:49;13.43;;;11.50;;
8225;SDS011;4154;48.810;9.012;2024-03-08T04:02:16;15.70;;;11.80;;
8225;SDS011;4154;48.810;9.012;2024-03-08T04:04:42;13.67;;;10.93;;
8225;SDS011;4154;48.810;9.012;2024-03-08T04:07:10;15.07;;;12.03;;
8225;SDS011;4154;48.810;9.012;2024-03-08T04:09:36;14.10;;;11.50;;
8225;SDS011;4154;48.810;9.012;2024-03-08T04:12:01;15.27;;;11.63;;
8225;SDS011;4154;48.810;9.012;2024-03-08T04:14:27;14.07;;;11.73;;
8225;SDS011;4154;48.810;9.012;2024-03-08T04:16:53;15.10;;;11.90;;
8225;SDS011;4154;48.810;9.012;2024-03-08T04:19:19;15.20;;;11.73;;
8225;SDS011;4154;48.810;9.012;2024-03-08T04:21:45;16.97;;;11.43;;
8225;SDS011;4154;48.810;9.012;2024-03-08T04:24:12;15.00;;;11.83;;
8225;SDS011;4154;48.810;9.012;2024-03-08T04:26:38;13.70;;;11.47;;
8225;SDS011;4154;48.810;9.012;2024-03-08T04:29:03;16.20;;;11.67;;
8225;SDS011;4154;48.810;9.012;2024-03-08T04:31:29;13.57;;;10.63;;
8225;SDS011;4154;48.810;9.012;2024-03-08T04:33:56;14.87;;;11.67;;
8225;SDS011;4154;48.810;9.012;2024-03-08T04:36:22;16.63;;;12.07;;
8225;SDS011;4154;48.810;9.012;2024-03-08T04:38:49;14.57;;;11.50;;
8225;SDS011;4154;48.810;9.012;2024-03-08T04:41:16;13.73;;;11.07;;
8225;SDS011;4154;48.810;9.012;2024-03-08T04:43:43;14.20;;;11.63;;
8225;SDS011;4154;48.810;9.012;2024-03-08T04:46:09;13.70;;;10.87;;
8225;SDS011;4154;48.810;9.012;2024-03-08T04:48:35;14.03;;;11.83;;
8225;SDS011;4154;48.810;9.012;2024-03-08T04:51:02;13.00;;;11.00;;
8225;SDS011;4154;48.810;9.012;2024-03-08T04:53:29;13.47;;;10.90;;
8225;SDS011;4154;48.810;9.012;2024-03-08T04:55:57;14.00;;;11.17;;
8225;SDS011;4154;48.810;9.012;2024-03-08T04:58:22;16.20;;;12.03;;
8225;SDS011;4154;48.810;9.012;2024-03-08T05:00:48;15.77;;;11.43;;
8225;SDS011;4154;48.810;9.012;2024-03-08T05:03:15;14.07;;;11.80;;
8225;SDS011;4154;48.810;9.012;2024-03-08T05:05:41;13.70;;;11.13;;
8225;SDS011;4154;48.810;9.012;2024-03-08T05:08:06;13.90;;;11.10;;
8225;SDS011;4154;48.810;9.012;2024-03-08T05:10:32;14.80;;;11.43;;
8225;SDS011;4154;48.810;9.012;2024-03-08T05:12:58;15.23;;;11.87;;
8225;SDS011;4154;48.810;9.012;2024-03-08T05:15:23;14.73;;;11.30;;
8225;SDS011;4154;48.810;9.012;2024-03-08T05:17:49;13.90;;;11.17;;
8225;SDS011;4154;48.810;9.012;2024-03-08T05:20:15;16.13;;;11.40;;
8225;SDS011;4154;48.810;9.012;2024-03-08T05:22:42;14.47;;;11.40;;
8225;SDS011;4154;48.810;9.012;2024-03-08T05:25:08;15.60;;;12.03;;
8225;SDS011;4154;48.810;9.012;2024-03-08T05:27:34;16.23;;;12.53;;
8225;SDS011;4154;48.810;9.012;2024-03-08T05:30:01;14.20;;;11.50;;
8225;SDS011;4154;48.810;9.012;2024-03-08T05:32:29;15.50;;;11.70;;
8225;SDS011;4154;48.810;9.012;2024-03-08T05:34:55;14.53;;;12.07;;
8225;SDS011;4154;48.810;9.012;2024-03-08T05:37:21;13.67;;;11.13;;
8225;SDS011;4154;48.810;9.012;2024-03-08T05:39:47;17.67;;;12.20;;
8225;SDS011;4154;48.810;9.012;2024-03-08T05:42:13;14.57;;;12.00;;
8225;SDS011;4154;48.810;9.012;2024-03-08T05:44:38;13.90;;;11.37;;
8225;SDS011;4154;48.810;9.012;2024-03-08T05:47:05;14.60;;;12.00;;
8225;SDS011;4154;48.810;9.012;2024-03-08T05:49:32;14.23;;;11.97;;
8225;SDS011;4154;48.810;9.012;2024-03-08T05:51:58;14.53;;;11.90;;
8225;SDS011;4154;48.810;9.012;2024-03-08T05:54:25;15.47;;;12.40;;
8225;SDS011;4154;48.810;9.012;2024-03-08T05:56:52;14.87;;;12.17;;
8225;SDS011;4154;48.810;9.012;2024-03-08T05:59:19;15.67;;;12.17;;
8225;SDS011;4154;48.810;9.012;2024-03-08T06:01:45;15.30;;;12.20;;
8225;SDS011;4154;48.810;9.012;2024-03-08T06:04:12;17.13;;;12.73;;
8225;SDS011;4154;48.810;9.012;2024-03-08T06:06:39;14.77;;;12.20;;
8225;SDS011;4154;48.810;9.012;2024-03-08T06:09:04;14.97;;;11.97;;
8225;SDS011;4154;48.810;9.012;2024-03-08T06:11:42;15.27;;;12.33;;
8225;SDS011;4154;48.810;9.012;2024-03-08T06:14:08;16.07;;;12.40;;
8225;SDS011;4154;48.810;9.012;2024-03-08T06:16:33;14.60;;;12.13;;
8225;SDS011;4154;48.810;9.012;2024-03-08T06:19:00;14.83;;;12.63;;
8225;SDS011;4154;48.810;9.012;2024-03-08T06:21:29;16.63;;;12.83;;
8225;SDS011;4154;48.810;9.012;2024-03-08T06:23:54;15.93;;;12.90;;
8225;SDS011;4154;48.810;9.012;2024-03-08T06:26:22;15.40;;;12.63;;
8225;SDS011;4154;48.810;9.012;2024-03-08T06:28:49;14.80;;;12.83;;
8225;SDS011;4154;48.810;9.012;2024-03-08T06:31:15;15.37;;;12.57;;
8225;SDS011;4154;48.810;9.012;2024-03-08T06:33:41;14.40;;;12.40;;
8225;SDS011;4154;48.810;9.012;2024-03-08T06:36:08;17.10;;;12.87;;
8225;SDS011;4154;48.810;9.012;2024-03-08T06:38:34;15.13;;;12.33;;
8225;SDS011;4154;48.810;9.012;2024-03-08T06:41:00;16.47;;;12.70;;
8225;SDS011;4154;48.810;9.012;2024-03-08T06:43:28;14.80;;;12.87;;
8225;SDS011;4154;48.810;9.012;2024-03-08T06:45:59;16.27;;;13.20;;
8225;SDS011;4154;48.810;9.012;2024-03-08T06:48:25;15.37;;;12.43;;
8225;SDS011;4154;48.810;9.012;2024-03-08T06:50:50;14.97;;;12.60;;
8225;SDS011;4154;48.810;9.012;2024-03-08T06:53:16;15.93;;;12.90;;
8225;SDS011;4154;48.810;9.012;2024-03-08T06:55:44;15.83;;;12.97;;
8225;SDS011;4154;48.810;9.012;2024-03-08T06:58:10;15.37;;;12.87;;
8225;SDS011;4154;48.810;9.012;2024-03-08T07:00:36;17.53;;;12.97;;
8225;SDS011;4154;48.810;9.012;2024-03-08T07:03:02;14.83;;;12.37;;
8225;SDS011;4154;48.810;9.012;2024-03-08T07:05:31;14.87;;;12.67;;
8225;SDS011;4154;48.810;9.012;2024-03-08T07:07:57;16.00;;;13.10;;
8225;SDS011;4154;48.810;9.012;2024-03-08T07:10:23;16.10;;;13.97;;
8225;SDS011;4154;48.810;9.012;2024-03-08T07:12:52;16.40;;;13.07;;
8225;SDS011;4154;48.810;9.012;2024-03-08T07:15:18;16.80;;;13.53;;
8225;SDS011;4154;48.810;9.012;2024-03-08T07:17:48;18.63;;;14.13;;
8225;SDS011;4154;48.810;9.012;2024-03-08T07:20:14;17.83;;;14.40;;
8225;SDS011;4154;48.810;9.012;2024-03-08T07:22:44;16.60;;;13.73;;
8225;SDS011;4154;48.810;9.012;2024-03-08T07:25:12;16.67;;;13.67;;
8225;SDS011;4154;48.810;9.012;2024-03-08T07:27:52;16.87;;;13.63;;
8225;SDS011;4154;48.810;9.012;2024-03-08T07:30:25;19.67;;;14.60;;
8225;SDS011;4154;48.810;9.012;2024-03-08T07:33:10;19.43;;;14.90;;
8225;SDS011;4154;48.810;9.012;2024-03-08T07:35:40;17.30;;;14.30;;
8225;SDS011;4154;48.810;9.012;2024-03-08T07:38:07;17.87;;;14.20;;
8225;SDS011;4154;48.810;9.012;2024-03-08T07:40:37;16.67;;;13.77;;
8225;SDS011;4154;48.810;9.012;2024-03-08T07:43:06;16.23;;;13.60;;
8225;SDS011;4154;48.810;9.012;2024-03-08T07:45:33;17.03;;;14.40;;
8225;SDS011;4154;48.810;9.012;2024-03-08T07:48:00;16.30;;;14.50;;
8225;SDS011;4154;48.810;9.012;2024-03-08T07:50:27;17.60;;;13.93;;
8225;SDS011;4154;48.810;9.012;2024-03-08T07:52:54;18.43;;;14.17;;
8225;SDS011;4154;48.810;9.012;2024-03-08T07:55:20;17.40;;;13.90;;
8225;SDS011;4154;48.810;9.012;2024-03-08T07:57:49;16.77;;;13.57;;
8225;SDS011;4154;48.810;9.012;2024-03-08T08:00:15;17.90;;;13.37;;
8225;SDS011;4154;48.810;9.012;2024-03-08T08:02:44;17.63;;;14.00;;
8225;SDS011;4154;48.810;9.012;2024-03-08T08:05:10;16.27;;;13.60;;
8225;SDS011;4154;48.810;9.012;2024-03-08T08:07:37;18.50;;;13.87;;
8225;SDS011;4154;48.810;9.012;2024-03-08T08:10:03;15.83;;;13.17;;
8225;SDS011;4154;48.810;9.012;2024-03-08T08:12:31;15.90;;;13.37;;
8225;SDS011;4154;48.810;9.012;2024-03-08T08:14:59;15.93;;;13.20;;
8225;SDS011;4154;48.810;9.012;2024-03-08T08:17:25;15.63;;;12.80;;
8225;SDS011;4154;48.810;9.012;2024-03-08T08:19:50;14.40;;;12.80;;
8225;SDS011;4154;48.810;9.012;2024-03-08T08:22:16;14.67;;;13.10;;
8225;SDS011;4154;48.810;9.012;2024-03-08T08:24:43;16.47;;;13.70;;
8225;SDS011;4154;48.810;9.012;2024-03-08T08:27:08;14.83;;;12.80;;
8225;SDS011;4154;48.810;9.012;2024-03-08T08:29:36;14.73;;;12.90;;
8225;SDS011;4154;48.810;9.012;2024-03-08T08:32:02;13.93;;;12.27;;
8225;SDS011;4154;48.810;9.012;2024-03-08T08:34:28;14.20;;;12.33;;
8225;SDS011;4154;48.810;9.012;2024-03-08T08:36:56;15.20;;;12.73;;
8225;SDS011;4154;48.810;9.012;2024-03-08T08:39:22;17.27;;;12.33;;
8225;SDS011;4154;48.810;9.012;2024-03-08T08:41:48;14.90;;;12.57;;
8225;SDS011;4154;48.810;9.012;2024-03-08T08:44:13;13.90;;;12.37;;
8225;SDS011;4154;48.810;9.012;2024-03-08T08:46:40;15.63;;;12.30;;
8225;SDS011;4154;48.810;9.012;2024-03-08T08:49:05;13.50;;;12.00;;
8225;SDS011;4154;48.810;9.012;2024-03-08T08:51:33;16.63;;;12.80;;
8225;SDS011;4154;48.810;9.012;2024-03-08T08:53:59;13.40;;;11.73;;
8225;SDS011;4154;48.810;9.012;2024-03-08T08:56:25;16.23;;;12.43;;
8225;SDS011;4154;48.810;9.012;2024-03-08T08:58:51;14.80;;;12.17;;
8225;SDS011;4154;48.810;9.012;2024-03-08T09:01:18;14.53;;;12.57;;
8225;SDS011;4154;48.810;9.012;2024-03-08T09:03:45;13.83;;;11.40;;
8225;SDS011;4154;48.810;9.012;2024-03-08T09:06:15;14.00;;;12.20;;
8225;SDS011;4154;48.810;9.012;2024-03-08T09:08:42;15.47;;;11.73;;
8225;SDS011;4154;48.810;9.012;2024-03-08T09:11:09;14.17;;;11.77;;
8225;SDS011;4154;48.810;9.012;2024-03-08T09:13:35;13.70;;;11.70;;
8225;SDS011;4154;48.810;9.012;2024-03-08T09:16:01;12.70;;;11.23;;
8225;SDS011;4154;48.810;9.012;2024-03-08T09:18:30;12.67;;;11.17;;
8225;SDS011;4154;48.810;9.012;2024-03-08T09:20:57;12.80;;;11.33;;
8225;SDS011;4154;48.810;9.012;2024-03-08T09:23:24;13.57;;;11.27;;
8225;SDS011;4154;48.810;9.012;2024-03-08T09:25:50;15.87;;;12.07;;
8225;SDS011;4154;48.810;9.012;2024-03-08T09:28:16;12.57;;;11.03;;
8225;SDS011;4154;48.810;9.012;2024-03-08T09:30:42;12.17;;;10.87;;
8225;SDS011;4154;48.810;9.012;2024-03-08T09:33:09;14.10;;;11.93;;
8225;SDS011;4154;48.810;9.012;2024-03-08T09:35:35;13.00;;;11.53;;
8225;SDS011;4154;48.810;9.012;2024-03-08T09:38:01;14.63;;;12.20;;
8225;SDS011;4154;48.810;9.012;2024-03-08T09:40:26;12.97;;;11.57;;
8225;SDS011;4154;48.810;9.012;2024-03-08T09:42:52;12.47;;;10.70;;
8225;SDS011;4154;48.810;9.012;2024-03-08T09:45:19;12.67;;;11.37;;
8225;SDS011;4154;48.810;9.012;2024-03-08T09:47:49;13.43;;;11.87;;
8225;SDS011;4154;48.810;9.012;2024-03-08T09:50:16;12.40;;;11.10;;
8225;SDS011;4154;48.810;9.012;2024-03-08T09:52:43;13.73;;;11.37;;
8225;SDS011;4154;48.810;9.012;2024-03-08T09:55:14;12.40;;;11.10;;
8225;SDS011;4154;48.810;9.012;2024-03-08T09:57:43;12.30;;;11.00;;
8225;SDS011;4154;48.810;9.012;2024-03-08T10:00:32;12.40;;;10.93;;
8225;SDS011;4154;48.810;9.012;2024-03-08T10:03:01;12.33;;;11.03;;
8225;SDS011;4154;48.810;9.012;2024-03-08T10:05:28;13.17;;;11.23;;
8225;SDS011;4154;48.810;9.012;2024-03-08T10:07:55;13.47;;;11.50;;
8225;SDS011;4154;48.810;9.012;2024-03-08T10:10:21;13.30;;;11.43;;
8225;SDS011;4154;48.810;9.012;2024-03-08T10:12:46;14.37;;;11.47;;
8225;SDS011;4154;48.810;9.012;2024-03-08T10:15:15;13.90;;;12.10;;
8225;SDS011;4154;48.810;9.012;2024-03-08T10:17:45;13.43;;;11.33;;
8225;SDS011;4154;48.810;9.012;2024-03-08T10:20:14;12.63;;;10.93;;
8225;SDS011;4154;48.810;9.012;2024-03-08T10:22:41;11.97;;;10.70;;
8225;SDS011;4154;48.810;9.012;2024-03-08T10:25:10;12.83;;;11.37;;
8225;SDS011;4154;48.810;9.012;2024-03-08T10:27:37;14.13;;;11.27;;
8225;SDS011;4154;48.810;9.012;2024-03-08T10:30:12;13.13;;;11.33;;
8225;SDS011;4154;48.810;9.012;2024-03-08T10:32:41;12.87;;;11.37;;
8225;SDS011;4154;48.810;9.012;2024-03-08T10:35:07;14.40;;;11.77;;
8225;SDS011;4154;48.810;9.012;2024-03-08T10:37:33;12.97;;;11.37;;
8225;SDS011;4154;48.810;9.012;2024-03-08T10:40:13;14.37;;;11.90;;
8225;SDS011;4154;48.810;9.012;2024-03-08T10:42:55;13.50;;;12.07;;
8225;SDS011;4154;48.810;9.012;2024-03-08T10:45:36;12.50;;;11.17;;
8225;SDS011;4154;48.810;9.012;2024-03-08T10:50:44;14.07;;;10.93;;
8225;SDS011;4154;48.810;9.012;2024-03-08T10:53:14;13.53;;;10.87;;
8225;SDS011;4154;48.810;9.012;2024-03-08T10:55:40;12.30;;;10.97;;
8225;SDS011;4154;48.810;9.012;2024-03-08T10:58:08;12.10;;;10.80;;
8225;SDS011;4154;48.810;9.012;2024-03-08T11:00:34;13.90;;;12.37;;
8225;SDS011;4154;48.810;9.012;2024-03-08T11:03:03;13.20;;;11.67;;
8225;SDS011;4154;48.810;9.012;2024-03-08T11:05:39;13.57;;;11.47;;
8225;SDS011;4154;48.810;9.012;2024-03-08T11:08:16;13.03;;;10.80;;
8225;SDS011;4154;48.810;9.012;2024-03-08T11:10:54;12.27;;;10.87;;
8225;SDS011;4154;48.810;9.012;2024-03-08T11:13:36;12.77;;;11.30;;
8225;SDS011;4154;48.810;9.012;2024-03-08T11:16:09;12.00;;;10.67;;
8225;SDS011;4154;48.810;9.012;2024-03-08T11:18:36;13.43;;;11.40;;
8225;SDS011;4154;48.810;9.012;2024-03-08T11:21:08;12.47;;;11.17;;
8225;SDS011;4154;48.810;9.012;2024-03-08T11:23:38;12.17;;;10.87;;
8225;SDS011;4154;48.810;9.012;2024-03-08T11:26:19;11.60;;;10.30;;
8225;SDS011;4154;48.810;9.012;2024-03-08T11:28:49;12.37;;;10.43;;
8225;SDS011;4154;48.810;9.012;2024-03-08T11:33:47;13.30;;;10.60;;
8225;SDS011;4154;48.810;9.012;2024-03-08T11:36:23;12.77;;;10.90;;
8225;SDS011;4154;48.810;9.012;2024-03-08T11:38:50;11.80;;;10.57;;
8225;SDS011;4154;48.810;9.012;2024-03-08T11:41:22;11.93;;;10.70;;
8225;SDS011;4154;48.810;9.012;2024-03-08T11:43:49;12.27;;;10.67;;
8225;SDS011;4154;48.810;9.012;2024-03-08T11:46:32;11.53;;;10.33;;
8225;SDS011;4154;48.810;9.012;2024-03-08T11:48:59;13.53;;;11.43;;
8225;SDS011;4154;48.810;9.012;2024-03-08T11:51:25;13.07;;;11.00;;
8225;SDS011;4154;48.810;9.012;2024-03-08T11:53:51;12.23;;;10.87;;
8225;SDS011;4154;48.810;9.012;2024-03-08T11:56:18;12.87;;;11.30;;
8225;SDS011;4154;48.810;9.012;2024-03-08T11:58:56;13.80;;;11.00;;
8225;SDS011;4154;48.810;9.012;2024-03-08T12:01:26;12.07;;;10.77;;
8225;SDS011;4154;48.810;9.012;2024-03-08T12:03:55;12.40;;;10.80;;
8225;SDS011;4154;48.810;9.012;2024-03-08T12:06:24;13.77;;;11.60;;
8225;SDS011;4154;48.810;9.012;2024-03-08T12:08:50;11.77;;;10.43;;
8225;SDS011;4154;48.810;9.012;2024-03-08T12:11:22;12.27;;;10.97;;
8225;SDS011;4154;48.810;9.012;2024-03-08T12:13:48;12.53;;;11.20;;
8225;SDS011;4154;48.810;9.012;2024-03-08T12:16:16;12.63;;;11.10;;
8225;SDS011;4154;48.810;9.012;2024-03-08T12:18:43;13.13;;;10.60;;
8225;SDS011;4154;48.810;9.012;2024-03-08T12:21:10;13.53;;;12.03;;
8225;SDS011;4154;48.810;9.012;2024-03-08T12:23:39;13.83;;;11.70;;
8225;SDS011;4154;48.810;9.012;2024-03-08T12:28:43;14.47;;;11.90;;
8225;SDS011;4154;48.810;9.012;2024-03-08T12:31:13;13.10;;;11.70;;
8225;SDS011;4154;48.810;9.012;2024-03-08T12:33:51;13.20;;;11.10;;
8225;SDS011;4154;48.810;9.012;2024-03-08T12:36:20;12.40;;;10.93;;
8225;SDS011;4154;48.810;9.012;2024-03-08T12:38:49;12.97;;;10.80;;
8225;SDS011;4154;48.810;9.012;2024-03-08T12:41:15;12.30;;;10.97;;
8225;SDS011;4154;48.810;9.012;2024-03-08T12:43:43;12.90;;;11.40;;
8225;SDS011;4154;48.810;9.012;2024-03-08T12:46:16;14.20;;;11.87;;
8225;SDS011;4154;48.810;9.012;2024-03-08T12:48:45;13.17;;;11.30;;
8225;SDS011;4154;48.810;9.012;2024-03-08T12:51:15;12.47;;;11.13;;
8225;SDS011;4154;48.810;9.012;2024-03-08T12:53:43;13.07;;;11.67;;
8225;SDS011;4154;48.810;9.012;2024-03-08T12:56:09;12.80;;;11.40;;
8225;SDS011;4154;48.810;9.012;2024-03-08T12:58:35;12.27;;;10.97;;
8225;SDS011;4154;48.810;9.012;2024-03-08T13:01:04;13.10;;;11.10;;
8225;SDS011;4154;48.810;9.012;2024-03-08T13:03:32;12.47;;;10.80;;
8225;SDS011;4154;48.810;9.012;2024-03-08T13:06:04;12.70;;;11.03;;
8225;SDS011;4154;48.810;9.012;2024-03-08T13:08:33;13.20;;;11.23;;
8225;SDS011;4154;48.810;9.012;2024-03-08T13:11:06;11.37;;;10.20;;
8225;SDS011;4154;48.810;9.012;2024-03-08T13:13:33;12.80;;;10.93;;
8225;SDS011;4154;48.810;9.012;2024-03-08T13:16:01;12.20;;;10.47;;
8225;SDS011;4154;48.810;9.012;2024-03-08T13:18:28;12.73;;;11.10;;
8225;SDS011;4154;48.810;9.012;2024-03-08T13:20:54;13.30;;;11.00;;
8225;SDS011;4154;48.810;9.012;2024-03-08T13:23:20;13.73;;;11.30;;
8225;SDS011;4154;48.810;9.012;2024-03-08T13:25:46;12.63;;;10.83;;
8225;SDS011;4154;48.810;9.012;2024-03-08T13:28:14;13.70;;;10.83;;
8225;SDS011;4154;48.810;9.012;2024-03-08T13:30:42;13.10;;;11.60;;
8225;SDS011;4154;48.810;9.012;2024-03-08T13:33:09;12.90;;;11.03;;
8225;SDS011;4154;48.810;9.012;2024-03-08T13:35:35;15.77;;;11.60;;
8225;SDS011;4154;48.810;9.012;2024-03-08T13:38:02;12.93;;;11.50;;
8225;SDS011;4154;48.810;9.012;2024-03-08T13:40:29;14.63;;;12.20;;
8225;SDS011;4154;48.810;9.012;2024-03-08T13:42:55;14.50;;;11.73;;
8225;SDS011;4154;48.810;9.012;2024-03-08T13:45:21;13.27;;;11.33;;
8225;SDS011;4154;48.810;9.012;2024-03-08T13:47:50;13.17;;;11.50;;
8225;SDS011;4154;48.810;9.012;2024-03-08T13:50:18;15.60;;;11.67;;
8225;SDS011;4154;48.810;9.012;2024-03-08T13:52:48;12.63;;;11.20;;
8225;SDS011;4154;48.810;9.012;2024-03-08T13:55:16;14.13;;;11.60;;
8225;SDS011;4154;48.810;9.012;2024-03-08T13:57:43;13.20;;;11.47;;
8225;SDS011;4154;48.810;9.012;2024-03-08T14:00:10;14.67;;;11.87;;
8225;SDS011;4154;48.810;9.012;2024-03-08T14:02:37;14.90;;;11.70;;
8225;SDS011;4154;48.810;9.012;2024-03-08T14:05:05;14.60;;;11.43;;
8225;SDS011;4154;48.810;9.012;2024-03-08T14:07:34;14.30;;;11.20;;
8225;SDS011;4154;48.810;9.012;2024-03-08T14:10:00;15.20;;;12.00;;
8225;SDS011;4154;48.810;9.012;2024-03-08T14:12:26;16.53;;;11.97;;
8225;SDS011;4154;48.810;9.012;2024-03-08T14:14:55;14.10;;;11.80;;
8225;SDS011;4154;48.810;9.012;2024-03-08T14:17:28;14.83;;;11.87;;
8225;SDS011;4154;48.810;9.012;2024-03-08T14:19:56;14.53;;;11.07;;
8225;SDS011;4154;48.810;9.012;2024-03-08T14:22:21;13.57;;;11.17;;
8225;SDS011;4154;48.810;9.012;2024-03-08T14:24:48;14.37;;;11.80;;
8225;SDS011;4154;48.810;9.012;2024-03-08T14:27:14;15.00;;;11.30;;
8225;SDS011;4154;48.810;9.012;2024-03-08T14:29:42;14.27;;;11.87;;
8225;SDS011;4154;48.810;9.012;2024-03-08T14:32:08;13.33;;;11.47;;
8225;SDS011;4154;48.810;9.012;2024-03-08T14:34:35;14.27;;;11.33;;
8225;SDS011;4154;48.810;9.012;2024-03-08T14:37:01;14.40;;;10.47;;
8225;SDS011;4154;48.810;9.012;2024-03-08T14:39:30;13.77;;;11.13;;
8225;SDS011;4154;48.810;9.012;2024-03-08T14:41:58;14.47;;;11.37;;
8225;SDS011;4154;48.810;9.012;2024-03-08T14:44:25;14.00;;;11.57;;
8225;SDS011;4154;48.810;9.012;2024-03-08T14:46:53;12.97;;;10.67;;
8225;SDS011;4154;48.810;9.012;2024-03-08T14:49:21;12.33;;;10.93;;
8225;SDS011;4154;48.810;9.012;2024-03-08T14:51:47;13.53;;;10.77;;
8225;SDS011;4154;48.810;9.012;2024-03-08T14:54:13;12.10;;;10.70;;
8225;SDS011;4154;48.810;9.012;2024-03-08T14:56:39;13.27;;;10.57;;
8225;SDS011;4154;48.810;9.012;2024-03-08T14:59:08;15.23;;;11.10;;